Terminal Aerodrome Forecast
Issued by NWS

Home | Current Version | Previous Version | Text Only | Print | Product List | Glossary On
Versions: 1 2 3 4 5 6 7 8 9 10 11 12
000
FTUS46 KMTR 182339
TAFMRY
TAF
KMRY 182339Z 1900/1924 11013KT P6SM -RA OVC100
     FM190200 15015G24KT P6SM -RA BKN050 OVC100
     FM190600 22013G19KT 6SM -SHRA OVC030
     FM191200 22009KT P6SM VCSH BKN035
     FM191900 24010KT P6SM BKN050=

USA.gov is the U.S. government's official web portal to all federal, state and local government web resources and services.